EGYD

RAF Cranwell Airport

Cranwell, United Kingdom
METAR EGYD 182150Z AUTO 24011KT 9999 // SCT021/// BKN050/// 18/15 Q1017
Observed Flight Rules
Jun-18 @ 21:50 UTC (46 minutes ago) Visual Flight Rules
Wind Visibility Clouds
240° at 11 knots 10,000+ meters
  • Scattered at 2,100' AGL
  • Broken at 5,000' AGL
Temperatures Readings
Current 18°C / 64°F
Dewpoint 15°C / 59°F
Humidity 83%
Altimeter 30.03" Hg
Pressure 1017 hPa
Elevation 67
METAR EGYD 182150Z AUTO 24011KT 9999 // SCT021/// BKN050/// 18/15 Q1017
Observed Flight Rules
Jun-18 @ 21:50 UTC
(46 minutes ago)
VFR
Wind Visibility
240° at 11 knots 10,000+ meters
Clouds
  • Scattered at 2,100' AGL
  • Broken at 5,000' AGL
Temperature Dewpoint
18°C / 64°F 15°C / 59°F
Humidity Altimeter Pressure
83% 30.03" Hg 1017 hPa